sensor_id;sensor_type;location;lat;lon;timestamp;P1;durP1;ratioP1;P2;durP2;ratioP2
20727;SDS011;10525;50.154;8.198;2023-04-09T00:01:44;7.15;;;4.93;;
20727;SDS011;10525;50.154;8.198;2023-04-09T00:04:11;7.07;;;4.60;;
20727;SDS011;10525;50.154;8.198;2023-04-09T00:06:38;8.27;;;4.75;;
20727;SDS011;10525;50.154;8.198;2023-04-09T00:09:05;5.55;;;4.72;;
20727;SDS011;10525;50.154;8.198;2023-04-09T00:11:32;6.18;;;4.40;;
20727;SDS011;10525;50.154;8.198;2023-04-09T00:14:00;6.57;;;4.75;;
20727;SDS011;10525;50.154;8.198;2023-04-09T00:16:27;5.05;;;4.40;;
20727;SDS011;10525;50.154;8.198;2023-04-09T00:18:55;5.35;;;4.55;;
20727;SDS011;10525;50.154;8.198;2023-04-09T00:21:22;5.38;;;4.43;;
20727;SDS011;10525;50.154;8.198;2023-04-09T00:23:51;7.88;;;5.15;;
20727;SDS011;10525;50.154;8.198;2023-04-09T00:26:18;5.93;;;4.88;;
20727;SDS011;10525;50.154;8.198;2023-04-09T00:28:45;7.00;;;4.55;;
20727;SDS011;10525;50.154;8.198;2023-04-09T00:31:12;9.82;;;6.07;;
20727;SDS011;10525;50.154;8.198;2023-04-09T00:33:39;13.20;;;6.13;;
20727;SDS011;10525;50.154;8.198;2023-04-09T00:36:08;13.32;;;6.78;;
20727;SDS011;10525;50.154;8.198;2023-04-09T00:38:35;11.68;;;6.25;;
20727;SDS011;10525;50.154;8.198;2023-04-09T00:41:02;16.60;;;6.78;;
20727;SDS011;10525;50.154;8.198;2023-04-09T00:43:29;13.77;;;7.03;;
20727;SDS011;10525;50.154;8.198;2023-04-09T00:45:57;6.97;;;5.30;;
20727;SDS011;10525;50.154;8.198;2023-04-09T00:48:24;9.32;;;5.60;;
20727;SDS011;10525;50.154;8.198;2023-04-09T00:50:51;9.38;;;5.80;;
20727;SDS011;10525;50.154;8.198;2023-04-09T00:53:20;7.05;;;5.22;;
20727;SDS011;10525;50.154;8.198;2023-04-09T00:55:47;12.68;;;6.03;;
20727;SDS011;10525;50.154;8.198;2023-04-09T00:58:14;11.50;;;6.95;;
20727;SDS011;10525;50.154;8.198;2023-04-09T01:00:41;7.97;;;5.65;;
20727;SDS011;10525;50.154;8.198;2023-04-09T01:03:08;8.40;;;5.90;;
20727;SDS011;10525;50.154;8.198;2023-04-09T01:05:37;9.30;;;5.35;;
20727;SDS011;10525;50.154;8.198;2023-04-09T01:08:07;6.47;;;5.10;;
20727;SDS011;10525;50.154;8.198;2023-04-09T01:10:40;9.88;;;5.65;;
20727;SDS011;10525;50.154;8.198;2023-04-09T01:13:11;7.10;;;5.35;;
20727;SDS011;10525;50.154;8.198;2023-04-09T01:15:41;9.20;;;5.47;;
20727;SDS011;10525;50.154;8.198;2023-04-09T01:18:14;9.38;;;5.65;;
20727;SDS011;10525;50.154;8.198;2023-04-09T01:20:42;7.30;;;5.00;;
20727;SDS011;10525;50.154;8.198;2023-04-09T01:23:15;6.97;;;5.07;;
20727;SDS011;10525;50.154;8.198;2023-04-09T01:25:46;5.72;;;4.63;;
20727;SDS011;10525;50.154;8.198;2023-04-09T01:28:18;7.68;;;5.25;;
20727;SDS011;10525;50.154;8.198;2023-04-09T01:30:47;8.70;;;5.20;;
20727;SDS011;10525;50.154;8.198;2023-04-09T01:33:15;9.85;;;6.03;;
20727;SDS011;10525;50.154;8.198;2023-04-09T01:35:43;5.15;;;4.65;;
20727;SDS011;10525;50.154;8.198;2023-04-09T01:38:11;9.18;;;5.53;;
20727;SDS011;10525;50.154;8.198;2023-04-09T01:40:39;6.45;;;4.90;;
20727;SDS011;10525;50.154;8.198;2023-04-09T01:43:06;8.98;;;5.53;;
20727;SDS011;10525;50.154;8.198;2023-04-09T01:45:35;7.45;;;5.53;;
20727;SDS011;10525;50.154;8.198;2023-04-09T01:48:02;11.73;;;5.32;;
20727;SDS011;10525;50.154;8.198;2023-04-09T01:50:30;9.38;;;5.45;;
20727;SDS011;10525;50.154;8.198;2023-04-09T01:52:58;7.22;;;5.60;;
20727;SDS011;10525;50.154;8.198;2023-04-09T01:55:25;8.95;;;4.80;;
20727;SDS011;10525;50.154;8.198;2023-04-09T01:57:52;7.78;;;5.18;;
20727;SDS011;10525;50.154;8.198;2023-04-09T02:00:19;10.88;;;5.35;;
20727;SDS011;10525;50.154;8.198;2023-04-09T02:02:52;14.32;;;5.88;;
20727;SDS011;10525;50.154;8.198;2023-04-09T02:05:20;7.10;;;5.28;;
20727;SDS011;10525;50.154;8.198;2023-04-09T02:07:51;10.02;;;5.53;;
20727;SDS011;10525;50.154;8.198;2023-04-09T02:10:20;9.23;;;5.57;;
20727;SDS011;10525;50.154;8.198;2023-04-09T02:12:50;6.13;;;4.88;;
20727;SDS011;10525;50.154;8.198;2023-04-09T02:15:18;11.43;;;5.85;;
20727;SDS011;10525;50.154;8.198;2023-04-09T02:17:45;8.95;;;5.55;;
20727;SDS011;10525;50.154;8.198;2023-04-09T02:20:16;7.95;;;5.50;;
20727;SDS011;10525;50.154;8.198;2023-04-09T02:22:43;10.57;;;5.55;;
20727;SDS011;10525;50.154;8.198;2023-04-09T02:25:10;7.40;;;5.50;;
20727;SDS011;10525;50.154;8.198;2023-04-09T02:27:37;6.20;;;5.43;;
20727;SDS011;10525;50.154;8.198;2023-04-09T02:30:05;7.80;;;5.00;;
20727;SDS011;10525;50.154;8.198;2023-04-09T02:32:32;6.75;;;4.93;;
20727;SDS011;10525;50.154;8.198;2023-04-09T02:34:59;7.82;;;5.20;;
20727;SDS011;10525;50.154;8.198;2023-04-09T02:37:28;10.73;;;5.43;;
20727;SDS011;10525;50.154;8.198;2023-04-09T02:39:55;8.48;;;6.10;;
20727;SDS011;10525;50.154;8.198;2023-04-09T02:42:22;8.55;;;5.78;;
20727;SDS011;10525;50.154;8.198;2023-04-09T02:44:49;7.60;;;5.45;;
20727;SDS011;10525;50.154;8.198;2023-04-09T02:47:16;8.48;;;5.60;;
20727;SDS011;10525;50.154;8.198;2023-04-09T02:49:43;10.80;;;5.97;;
20727;SDS011;10525;50.154;8.198;2023-04-09T02:52:10;10.88;;;5.82;;
20727;SDS011;10525;50.154;8.198;2023-04-09T02:54:39;6.25;;;4.97;;
20727;SDS011;10525;50.154;8.198;2023-04-09T02:57:06;9.52;;;5.45;;
20727;SDS011;10525;50.154;8.198;2023-04-09T02:59:33;8.65;;;5.13;;
20727;SDS011;10525;50.154;8.198;2023-04-09T03:02:00;8.52;;;5.80;;
20727;SDS011;10525;50.154;8.198;2023-04-09T03:04:27;12.55;;;5.57;;
20727;SDS011;10525;50.154;8.198;2023-04-09T03:06:54;6.03;;;4.88;;
20727;SDS011;10525;50.154;8.198;2023-04-09T03:09:21;8.30;;;5.32;;
20727;SDS011;10525;50.154;8.198;2023-04-09T03:11:49;12.40;;;5.63;;
20727;SDS011;10525;50.154;8.198;2023-04-09T03:14:16;7.93;;;5.50;;
20727;SDS011;10525;50.154;8.198;2023-04-09T03:16:43;9.23;;;5.50;;
20727;SDS011;10525;50.154;8.198;2023-04-09T03:19:11;10.10;;;5.57;;
20727;SDS011;10525;50.154;8.198;2023-04-09T03:21:38;9.93;;;5.22;;
20727;SDS011;10525;50.154;8.198;2023-04-09T03:24:05;9.90;;;5.65;;
20727;SDS011;10525;50.154;8.198;2023-04-09T03:26:32;11.82;;;6.07;;
20727;SDS011;10525;50.154;8.198;2023-04-09T03:29:02;6.45;;;5.03;;
20727;SDS011;10525;50.154;8.198;2023-04-09T03:31:29;14.70;;;8.27;;
20727;SDS011;10525;50.154;8.198;2023-04-09T03:33:56;11.80;;;5.50;;
20727;SDS011;10525;50.154;8.198;2023-04-09T03:36:23;9.65;;;6.20;;
20727;SDS011;10525;50.154;8.198;2023-04-09T03:38:51;9.25;;;5.47;;
20727;SDS011;10525;50.154;8.198;2023-04-09T03:41:18;7.32;;;5.53;;
20727;SDS011;10525;50.154;8.198;2023-04-09T03:43:46;10.63;;;5.43;;
20727;SDS011;10525;50.154;8.198;2023-04-09T03:46:14;13.65;;;4.78;;
20727;SDS011;10525;50.154;8.198;2023-04-09T03:48:41;9.90;;;5.93;;
20727;SDS011;10525;50.154;8.198;2023-04-09T03:51:10;9.23;;;5.57;;
20727;SDS011;10525;50.154;8.198;2023-04-09T03:53:37;8.18;;;5.55;;
20727;SDS011;10525;50.154;8.198;2023-04-09T03:56:05;9.83;;;5.87;;
20727;SDS011;10525;50.154;8.198;2023-04-09T03:58:32;11.15;;;6.28;;
20727;SDS011;10525;50.154;8.198;2023-04-09T04:00:59;9.23;;;5.10;;
20727;SDS011;10525;50.154;8.198;2023-04-09T04:03:28;10.50;;;6.70;;
20727;SDS011;10525;50.154;8.198;2023-04-09T04:05:58;10.33;;;6.47;;
20727;SDS011;10525;50.154;8.198;2023-04-09T04:08:25;11.67;;;6.70;;
20727;SDS011;10525;50.154;8.198;2023-04-09T04:10:52;11.60;;;7.13;;
20727;SDS011;10525;50.154;8.198;2023-04-09T04:13:19;12.73;;;7.07;;
20727;SDS011;10525;50.154;8.198;2023-04-09T04:15:46;10.20;;;6.67;;
20727;SDS011;10525;50.154;8.198;2023-04-09T04:18:14;13.47;;;6.97;;
20727;SDS011;10525;50.154;8.198;2023-04-09T04:20:42;17.13;;;7.50;;
20727;SDS011;10525;50.154;8.198;2023-04-09T04:23:09;13.93;;;7.13;;
20727;SDS011;10525;50.154;8.198;2023-04-09T04:25:36;15.77;;;7.43;;
20727;SDS011;10525;50.154;8.198;2023-04-09T04:28:06;11.87;;;7.03;;
20727;SDS011;10525;50.154;8.198;2023-04-09T04:30:33;17.90;;;7.57;;
20727;SDS011;10525;50.154;8.198;2023-04-09T04:33:00;16.17;;;6.97;;
20727;SDS011;10525;50.154;8.198;2023-04-09T04:35:27;15.93;;;8.47;;
20727;SDS011;10525;50.154;8.198;2023-04-09T04:37:55;18.10;;;8.13;;
20727;SDS011;10525;50.154;8.198;2023-04-09T04:40:22;20.53;;;8.30;;
20727;SDS011;10525;50.154;8.198;2023-04-09T04:42:50;17.17;;;8.03;;
20727;SDS011;10525;50.154;8.198;2023-04-09T04:45:17;18.20;;;8.63;;
20727;SDS011;10525;50.154;8.198;2023-04-09T04:47:44;14.73;;;7.37;;
20727;SDS011;10525;50.154;8.198;2023-04-09T04:50:11;19.93;;;9.17;;
20727;SDS011;10525;50.154;8.198;2023-04-09T04:52:38;16.80;;;7.77;;
20727;SDS011;10525;50.154;8.198;2023-04-09T04:55:07;18.67;;;8.57;;
20727;SDS011;10525;50.154;8.198;2023-04-09T04:57:34;25.43;;;9.23;;
20727;SDS011;10525;50.154;8.198;2023-04-09T05:00:01;26.07;;;9.63;;
20727;SDS011;10525;50.154;8.198;2023-04-09T05:02:28;21.93;;;9.17;;
20727;SDS011;10525;50.154;8.198;2023-04-09T05:04:55;19.87;;;8.77;;
20727;SDS011;10525;50.154;8.198;2023-04-09T05:07:22;20.33;;;8.97;;
20727;SDS011;10525;50.154;8.198;2023-04-09T05:09:50;19.27;;;9.40;;
20727;SDS011;10525;50.154;8.198;2023-04-09T05:12:18;25.63;;;9.57;;
20727;SDS011;10525;50.154;8.198;2023-04-09T05:14:45;24.97;;;9.23;;
20727;SDS011;10525;50.154;8.198;2023-04-09T05:17:13;30.97;;;9.77;;
20727;SDS011;10525;50.154;8.198;2023-04-09T05:19:40;24.47;;;10.27;;
20727;SDS011;10525;50.154;8.198;2023-04-09T05:22:07;20.87;;;9.60;;
20727;SDS011;10525;50.154;8.198;2023-04-09T05:24:34;24.93;;;10.30;;
20727;SDS011;10525;50.154;8.198;2023-04-09T05:27:01;24.27;;;10.17;;
20727;SDS011;10525;50.154;8.198;2023-04-09T05:29:30;29.33;;;11.37;;
20727;SDS011;10525;50.154;8.198;2023-04-09T05:31:57;21.70;;;9.63;;
20727;SDS011;10525;50.154;8.198;2023-04-09T05:34:24;31.98;;;12.13;;
20727;SDS011;10525;50.154;8.198;2023-04-09T05:36:52;29.05;;;11.00;;
20727;SDS011;10525;50.154;8.198;2023-04-09T05:39:19;27.55;;;10.75;;
20727;SDS011;10525;50.154;8.198;2023-04-09T05:41:46;25.55;;;10.23;;
20727;SDS011;10525;50.154;8.198;2023-04-09T05:44:13;22.13;;;9.40;;
20727;SDS011;10525;50.154;8.198;2023-04-09T05:46:42;26.30;;;9.45;;
20727;SDS011;10525;50.154;8.198;2023-04-09T05:49:09;30.65;;;10.10;;
20727;SDS011;10525;50.154;8.198;2023-04-09T05:51:36;26.83;;;9.82;;
20727;SDS011;10525;50.154;8.198;2023-04-09T05:54:03;15.20;;;8.63;;
20727;SDS011;10525;50.154;8.198;2023-04-09T05:56:30;16.70;;;7.80;;
20727;SDS011;10525;50.154;8.198;2023-04-09T05:58:57;12.82;;;7.32;;
20727;SDS011;10525;50.154;8.198;2023-04-09T06:01:24;17.88;;;7.70;;
20727;SDS011;10525;50.154;8.198;2023-04-09T06:03:53;14.60;;;7.88;;
20727;SDS011;10525;50.154;8.198;2023-04-09T06:06:20;14.88;;;7.80;;
20727;SDS011;10525;50.154;8.198;2023-04-09T06:08:47;18.95;;;8.43;;
20727;SDS011;10525;50.154;8.198;2023-04-09T06:11:14;15.65;;;7.72;;
20727;SDS011;10525;50.154;8.198;2023-04-09T06:13:41;14.65;;;8.18;;
20727;SDS011;10525;50.154;8.198;2023-04-09T06:16:08;20.27;;;8.60;;
20727;SDS011;10525;50.154;8.198;2023-04-09T06:18:36;17.83;;;8.38;;
20727;SDS011;10525;50.154;8.198;2023-04-09T06:21:05;18.55;;;8.90;;
20727;SDS011;10525;50.154;8.198;2023-04-09T06:23:32;18.75;;;9.02;;
20727;SDS011;10525;50.154;8.198;2023-04-09T06:26:00;31.05;;;9.77;;
20727;SDS011;10525;50.154;8.198;2023-04-09T06:28:27;18.10;;;8.73;;
20727;SDS011;10525;50.154;8.198;2023-04-09T06:30:55;23.77;;;9.23;;
20727;SDS011;10525;50.154;8.198;2023-04-09T06:33:22;20.13;;;8.75;;
20727;SDS011;10525;50.154;8.198;2023-04-09T06:35:50;16.67;;;7.93;;
20727;SDS011;10525;50.154;8.198;2023-04-09T06:38:18;12.85;;;7.35;;
20727;SDS011;10525;50.154;8.198;2023-04-09T06:40:45;16.67;;;8.27;;
20727;SDS011;10525;50.154;8.198;2023-04-09T06:43:12;15.73;;;8.32;;
20727;SDS011;10525;50.154;8.198;2023-04-09T06:45:39;18.80;;;8.73;;
20727;SDS011;10525;50.154;8.198;2023-04-09T06:48:06;19.75;;;9.63;;
20727;SDS011;10525;50.154;8.198;2023-04-09T06:50:33;18.45;;;10.55;;
20727;SDS011;10525;50.154;8.198;2023-04-09T06:53:01;28.77;;;13.43;;
20727;SDS011;10525;50.154;8.198;2023-04-09T06:55:29;25.70;;;11.75;;
20727;SDS011;10525;50.154;8.198;2023-04-09T06:57:56;32.75;;;13.38;;
20727;SDS011;10525;50.154;8.198;2023-04-09T07:00:23;31.55;;;13.88;;
20727;SDS011;10525;50.154;8.198;2023-04-09T07:02:50;27.63;;;13.43;;
20727;SDS011;10525;50.154;8.198;2023-04-09T07:05:19;29.48;;;13.48;;
20727;SDS011;10525;50.154;8.198;2023-04-09T07:07:46;26.40;;;13.20;;
20727;SDS011;10525;50.154;8.198;2023-04-09T07:10:13;29.58;;;13.18;;
20727;SDS011;10525;50.154;8.198;2023-04-09T07:12:42;27.88;;;12.27;;
20727;SDS011;10525;50.154;8.198;2023-04-09T07:15:09;27.63;;;12.70;;
20727;SDS011;10525;50.154;8.198;2023-04-09T07:17:36;28.58;;;13.30;;
20727;SDS011;10525;50.154;8.198;2023-04-09T07:20:03;28.13;;;12.88;;
20727;SDS011;10525;50.154;8.198;2023-04-09T07:22:30;23.73;;;11.95;;
20727;SDS011;10525;50.154;8.198;2023-04-09T07:24:57;28.35;;;13.68;;
20727;SDS011;10525;50.154;8.198;2023-04-09T07:27:25;25.40;;;12.85;;
20727;SDS011;10525;50.154;8.198;2023-04-09T07:29:54;24.88;;;12.63;;
20727;SDS011;10525;50.154;8.198;2023-04-09T07:32:21;23.15;;;11.80;;
20727;SDS011;10525;50.154;8.198;2023-04-09T07:34:49;25.52;;;12.73;;
20727;SDS011;10525;50.154;8.198;2023-04-09T07:37:17;19.88;;;11.88;;
20727;SDS011;10525;50.154;8.198;2023-04-09T07:39:44;26.27;;;13.40;;
20727;SDS011;10525;50.154;8.198;2023-04-09T07:42:12;24.73;;;13.27;;
20727;SDS011;10525;50.154;8.198;2023-04-09T07:44:39;24.20;;;12.77;;
20727;SDS011;10525;50.154;8.198;2023-04-09T07:47:07;21.25;;;12.05;;
20727;SDS011;10525;50.154;8.198;2023-04-09T07:49:35;22.83;;;11.75;;
20727;SDS011;10525;50.154;8.198;2023-04-09T07:52:03;24.80;;;12.40;;
20727;SDS011;10525;50.154;8.198;2023-04-09T07:54:30;22.60;;;11.68;;
20727;SDS011;10525;50.154;8.198;2023-04-09T07:56:57;23.02;;;11.15;;
20727;SDS011;10525;50.154;8.198;2023-04-09T07:59:25;24.23;;;12.73;;
20727;SDS011;10525;50.154;8.198;2023-04-09T08:01:53;23.33;;;11.18;;
20727;SDS011;10525;50.154;8.198;2023-04-09T08:04:22;20.10;;;10.82;;
20727;SDS011;10525;50.154;8.198;2023-04-09T08:06:49;20.25;;;11.15;;
20727;SDS011;10525;50.154;8.198;2023-04-09T08:09:17;19.73;;;10.40;;
20727;SDS011;10525;50.154;8.198;2023-04-09T08:11:44;18.17;;;10.52;;
20727;SDS011;10525;50.154;8.198;2023-04-09T08:14:12;23.15;;;10.65;;
20727;SDS011;10525;50.154;8.198;2023-04-09T08:16:39;21.92;;;10.98;;
20727;SDS011;10525;50.154;8.198;2023-04-09T08:19:06;20.50;;;10.57;;
20727;SDS011;10525;50.154;8.198;2023-04-09T08:21:36;14.70;;;8.82;;
20727;SDS011;10525;50.154;8.198;2023-04-09T08:24:04;18.60;;;9.65;;
20727;SDS011;10525;50.154;8.198;2023-04-09T08:26:32;16.42;;;9.63;;
20727;SDS011;10525;50.154;8.198;2023-04-09T08:28:59;17.75;;;9.98;;
20727;SDS011;10525;50.154;8.198;2023-04-09T08:31:26;23.10;;;11.10;;
20727;SDS011;10525;50.154;8.198;2023-04-09T08:33:53;17.95;;;9.98;;
20727;SDS011;10525;50.154;8.198;2023-04-09T08:36:20;20.63;;;9.98;;
20727;SDS011;10525;50.154;8.198;2023-04-09T08:38:49;16.33;;;9.25;;
20727;SDS011;10525;50.154;8.198;2023-04-09T08:41:17;18.42;;;9.27;;
20727;SDS011;10525;50.154;8.198;2023-04-09T08:43:45;16.00;;;9.50;;
20727;SDS011;10525;50.154;8.198;2023-04-09T08:46:13;15.75;;;9.27;;
20727;SDS011;10525;50.154;8.198;2023-04-09T08:48:41;12.55;;;7.93;;
20727;SDS011;10525;50.154;8.198;2023-04-09T08:51:11;16.70;;;9.35;;
20727;SDS011;10525;50.154;8.198;2023-04-09T08:53:38;16.08;;;9.55;;
20727;SDS011;10525;50.154;8.198;2023-04-09T08:56:07;16.48;;;9.35;;
20727;SDS011;10525;50.154;8.198;2023-04-09T08:58:34;17.15;;;9.23;;
20727;SDS011;10525;50.154;8.198;2023-04-09T09:01:01;15.23;;;9.50;;
20727;SDS011;10525;50.154;8.198;2023-04-09T09:03:29;16.35;;;10.30;;
20727;SDS011;10525;50.154;8.198;2023-04-09T09:05:56;18.77;;;10.38;;
20727;SDS011;10525;50.154;8.198;2023-04-09T09:08:24;19.92;;;10.18;;
20727;SDS011;10525;50.154;8.198;2023-04-09T09:10:51;15.93;;;8.40;;
20727;SDS011;10525;50.154;8.198;2023-04-09T09:13:20;11.57;;;7.38;;
20727;SDS011;10525;50.154;8.198;2023-04-09T09:15:48;12.85;;;7.93;;
20727;SDS011;10525;50.154;8.198;2023-04-09T09:18:18;15.30;;;9.25;;
20727;SDS011;10525;50.154;8.198;2023-04-09T09:20:45;16.23;;;9.98;;
20727;SDS011;10525;50.154;8.198;2023-04-09T09:23:12;16.05;;;9.52;;
20727;SDS011;10525;50.154;8.198;2023-04-09T09:25:39;12.82;;;8.52;;
20727;SDS011;10525;50.154;8.198;2023-04-09T09:28:07;14.77;;;9.85;;
20727;SDS011;10525;50.154;8.198;2023-04-09T09:30:36;11.45;;;8.50;;
20727;SDS011;10525;50.154;8.198;2023-04-09T09:33:04;18.10;;;10.88;;
20727;SDS011;10525;50.154;8.198;2023-04-09T09:35:45;16.10;;;10.10;;
20727;SDS011;10525;50.154;8.198;2023-04-09T09:38:13;14.40;;;8.55;;
20727;SDS011;10525;50.154;8.198;2023-04-09T09:40:41;12.25;;;5.90;;
20727;SDS011;10525;50.154;8.198;2023-04-09T09:43:08;8.32;;;6.57;;
20727;SDS011;10525;50.154;8.198;2023-04-09T09:45:36;9.90;;;7.40;;
20727;SDS011;10525;50.154;8.198;2023-04-09T09:48:04;12.82;;;8.13;;
20727;SDS011;10525;50.154;8.198;2023-04-09T09:50:31;11.43;;;7.60;;
20727;SDS011;10525;50.154;8.198;2023-04-09T09:53:01;12.65;;;8.27;;
20727;SDS011;10525;50.154;8.198;2023-04-09T09:55:30;9.73;;;7.10;;
20727;SDS011;10525;50.154;8.198;2023-04-09T09:57:57;10.45;;;7.70;;
20727;SDS011;10525;50.154;8.198;2023-04-09T10:00:26;11.57;;;7.65;;
20727;SDS011;10525;50.154;8.198;2023-04-09T10:02:56;16.60;;;8.82;;
20727;SDS011;10525;50.154;8.198;2023-04-09T10:05:24;11.20;;;7.70;;
20727;SDS011;10525;50.154;8.198;2023-04-09T10:07:53;14.40;;;9.13;;
20727;SDS011;10525;50.154;8.198;2023-04-09T10:10:20;10.95;;;6.80;;
20727;SDS011;10525;50.154;8.198;2023-04-09T10:12:48;11.48;;;7.47;;
20727;SDS011;10525;50.154;8.198;2023-04-09T10:15:16;8.82;;;6.55;;
20727;SDS011;10525;50.154;8.198;2023-04-09T10:17:43;9.32;;;5.70;;
20727;SDS011;10525;50.154;8.198;2023-04-09T10:20:13;7.60;;;6.32;;
20727;SDS011;10525;50.154;8.198;2023-04-09T10:22:41;7.57;;;5.80;;
20727;SDS011;10525;50.154;8.198;2023-04-09T10:25:11;9.90;;;6.93;;
20727;SDS011;10525;50.154;8.198;2023-04-09T10:27:38;5.95;;;4.97;;
20727;SDS011;10525;50.154;8.198;2023-04-09T10:30:06;5.18;;;4.68;;
20727;SDS011;10525;50.154;8.198;2023-04-09T10:32:34;4.63;;;4.22;;
20727;SDS011;10525;50.154;8.198;2023-04-09T10:35:02;4.75;;;4.35;;
20727;SDS011;10525;50.154;8.198;2023-04-09T10:37:31;4.60;;;4.25;;
20727;SDS011;10525;50.154;8.198;2023-04-09T10:39:58;5.20;;;4.70;;
20727;SDS011;10525;50.154;8.198;2023-04-09T10:42:28;7.15;;;5.80;;
20727;SDS011;10525;50.154;8.198;2023-04-09T10:45:05;11.32;;;6.20;;
20727;SDS011;10525;50.154;8.198;2023-04-09T10:47:33;4.50;;;4.20;;
20727;SDS011;10525;50.154;8.198;2023-04-09T10:52:44;5.80;;;5.30;;
20727;SDS011;10525;50.154;8.198;2023-04-09T10:57:53;3.40;;;3.20;;
20727;SDS011;10525;50.154;8.198;2023-04-09T11:00:20;4.40;;;4.10;;
20727;SDS011;10525;50.154;8.198;2023-04-09T11:02:54;3.35;;;3.15;;
20727;SDS011;10525;50.154;8.198;2023-04-09T11:05:27;3.17;;;2.97;;
20727;SDS011;10525;50.154;8.198;2023-04-09T11:08:05;3.13;;;2.92;;
20727;SDS011;10525;50.154;8.198;2023-04-09T11:10:33;2.78;;;2.67;;
20727;SDS011;10525;50.154;8.198;2023-04-09T11:13:00;3.70;;;3.50;;
20727;SDS011;10525;50.154;8.198;2023-04-09T11:15:28;3.75;;;3.47;;
20727;SDS011;10525;50.154;8.198;2023-04-09T11:17:55;3.10;;;2.90;;
20727;SDS011;10525;50.154;8.198;2023-04-09T11:20:23;3.70;;;3.50;;
20727;SDS011;10525;50.154;8.198;2023-04-09T11:22:51;4.97;;;3.58;;
20727;SDS011;10525;50.154;8.198;2023-04-09T11:25:21;5.13;;;4.63;;
20727;SDS011;10525;50.154;8.198;2023-04-09T11:27:48;5.38;;;4.95;;
20727;SDS011;10525;50.154;8.198;2023-04-09T11:30:15;5.78;;;5.18;;
20727;SDS011;10525;50.154;8.198;2023-04-09T11:32:42;6.68;;;5.03;;
20727;SDS011;10525;50.154;8.198;2023-04-09T11:35:10;5.15;;;4.60;;
20727;SDS011;10525;50.154;8.198;2023-04-09T11:37:40;5.28;;;4.78;;
20727;SDS011;10525;50.154;8.198;2023-04-09T11:40:13;13.43;;;5.60;;
20727;SDS011;10525;50.154;8.198;2023-04-09T11:42:42;5.43;;;4.90;;
20727;SDS011;10525;50.154;8.198;2023-04-09T11:45:10;6.50;;;5.55;;
20727;SDS011;10525;50.154;8.198;2023-04-09T11:47:38;8.50;;;5.75;;
20727;SDS011;10525;50.154;8.198;2023-04-09T11:50:07;5.32;;;4.82;;
20727;SDS011;10525;50.154;8.198;2023-04-09T11:52:34;5.18;;;4.72;;
20727;SDS011;10525;50.154;8.198;2023-04-09T11:55:01;5.63;;;5.13;;
20727;SDS011;10525;50.154;8.198;2023-04-09T11:57:38;4.72;;;4.32;;
20727;SDS011;10525;50.154;8.198;2023-04-09T12:00:09;4.95;;;4.57;;
20727;SDS011;10525;50.154;8.198;2023-04-09T12:02:37;4.75;;;4.38;;
20727;SDS011;10525;50.154;8.198;2023-04-09T12:05:06;4.28;;;3.97;;
20727;SDS011;10525;50.154;8.198;2023-04-09T12:07:33;6.20;;;4.60;;
20727;SDS011;10525;50.154;8.198;2023-04-09T12:10:05;5.53;;;5.00;;
20727;SDS011;10525;50.154;8.198;2023-04-09T12:12:40;6.72;;;5.45;;
20727;SDS011;10525;50.154;8.198;2023-04-09T12:15:16;8.32;;;5.20;;
20727;SDS011;10525;50.154;8.198;2023-04-09T12:17:45;6.07;;;5.25;;
20727;SDS011;10525;50.154;8.198;2023-04-09T12:20:12;6.35;;;5.75;;
20727;SDS011;10525;50.154;8.198;2023-04-09T12:22:40;9.18;;;6.30;;
20727;SDS011;10525;50.154;8.198;2023-04-09T12:25:07;8.07;;;6.45;;
20727;SDS011;10525;50.154;8.198;2023-04-09T12:27:35;8.25;;;6.65;;
20727;SDS011;10525;50.154;8.198;2023-04-09T12:30:02;7.05;;;5.57;;
20727;SDS011;10525;50.154;8.198;2023-04-09T12:32:30;6.85;;;5.90;;
20727;SDS011;10525;50.154;8.198;2023-04-09T12:34:57;8.57;;;6.43;;
20727;SDS011;10525;50.154;8.198;2023-04-09T12:37:24;9.80;;;7.18;;
20727;SDS011;10525;50.154;8.198;2023-04-09T12:39:52;6.97;;;5.88;;
20727;SDS011;10525;50.154;8.198;2023-04-09T12:42:20;6.70;;;5.72;;
20727;SDS011;10525;50.154;8.198;2023-04-09T12:44:47;7.80;;;5.68;;
20727;SDS011;10525;50.154;8.198;2023-04-09T12:47:14;7.03;;;6.32;;
20727;SDS011;10525;50.154;8.198;2023-04-09T12:49:43;7.75;;;6.55;;
20727;SDS011;10525;50.154;8.198;2023-04-09T12:52:10;6.22;;;5.65;;
20727;SDS011;10525;50.154;8.198;2023-04-09T12:54:38;7.25;;;5.57;;
20727;SDS011;10525;50.154;8.198;2023-04-09T12:57:05;6.30;;;5.70;;
20727;SDS011;10525;50.154;8.198;2023-04-09T12:59:32;7.20;;;5.72;;
20727;SDS011;10525;50.154;8.198;2023-04-09T13:01:59;6.65;;;5.30;;
20727;SDS011;10525;50.154;8.198;2023-04-09T13:04:26;5.82;;;5.32;;
20727;SDS011;10525;50.154;8.198;2023-04-09T13:06:55;6.45;;;5.57;;
20727;SDS011;10525;50.154;8.198;2023-04-09T13:09:22;6.22;;;5.60;;
20727;SDS011;10525;50.154;8.198;2023-04-09T13:11:49;5.63;;;5.13;;
20727;SDS011;10525;50.154;8.198;2023-04-09T13:14:16;5.95;;;5.35;;
20727;SDS011;10525;50.154;8.198;2023-04-09T13:16:43;6.70;;;5.85;;
20727;SDS011;10525;50.154;8.198;2023-04-09T13:19:11;5.60;;;5.03;;
20727;SDS011;10525;50.154;8.198;2023-04-09T13:21:38;6.40;;;5.80;;
20727;SDS011;10525;50.154;8.198;2023-04-09T13:24:06;6.05;;;5.47;;
20727;SDS011;10525;50.154;8.198;2023-04-09T13:26:33;7.30;;;6.10;;
20727;SDS011;10525;50.154;8.198;2023-04-09T13:29:00;6.70;;;6.10;;
20727;SDS011;10525;50.154;8.198;2023-04-09T13:31:28;7.20;;;6.10;;
20727;SDS011;10525;50.154;8.198;2023-04-09T13:33:55;7.50;;;6.10;;
20727;SDS011;10525;50.154;8.198;2023-04-09T13:36:22;6.55;;;5.90;;
20727;SDS011;10525;50.154;8.198;2023-04-09T13:38:49;6.25;;;5.65;;
20727;SDS011;10525;50.154;8.198;2023-04-09T13:41:18;5.85;;;5.10;;
20727;SDS011;10525;50.154;8.198;2023-04-09T13:43:45;6.20;;;5.60;;
20727;SDS011;10525;50.154;8.198;2023-04-09T13:46:12;5.72;;;5.22;;
20727;SDS011;10525;50.154;8.198;2023-04-09T13:48:39;7.03;;;5.45;;
20727;SDS011;10525;50.154;8.198;2023-04-09T13:51:07;9.65;;;5.65;;
20727;SDS011;10525;50.154;8.198;2023-04-09T13:53:34;31.10;;;16.63;;
20727;SDS011;10525;50.154;8.198;2023-04-09T13:56:01;10.40;;;7.50;;
20727;SDS011;10525;50.154;8.198;2023-04-09T13:58:30;6.07;;;5.38;;
20727;SDS011;10525;50.154;8.198;2023-04-09T14:00:57;8.35;;;6.13;;
20727;SDS011;10525;50.154;8.198;2023-04-09T14:03:24;7.57;;;6.20;;
20727;SDS011;10525;50.154;8.198;2023-04-09T14:05:51;7.80;;;5.90;;
20727;SDS011;10525;50.154;8.198;2023-04-09T14:08:18;6.05;;;5.45;;
20727;SDS011;10525;50.154;8.198;2023-04-09T14:10:46;6.88;;;6.18;;
20727;SDS011;10525;50.154;8.198;2023-04-09T14:13:13;7.35;;;5.85;;
20727;SDS011;10525;50.154;8.198;2023-04-09T14:15:41;7.05;;;5.38;;
20727;SDS011;10525;50.154;8.198;2023-04-09T14:18:09;8.82;;;6.32;;
20727;SDS011;10525;50.154;8.198;2023-04-09T14:20:36;9.30;;;6.70;;
20727;SDS011;10525;50.154;8.198;2023-04-09T14:23:03;9.93;;;6.22;;
20727;SDS011;10525;50.154;8.198;2023-04-09T14:25:30;9.63;;;7.00;;
20727;SDS011;10525;50.154;8.198;2023-04-09T14:27:57;63.53;;;31.33;;
20727;SDS011;10525;50.154;8.198;2023-04-09T14:30:24;60.00;;;25.42;;
20727;SDS011;10525;50.154;8.198;2023-04-09T14:32:53;8.18;;;6.40;;
20727;SDS011;10525;50.154;8.198;2023-04-09T14:35:20;11.27;;;8.02;;
20727;SDS011;10525;50.154;8.198;2023-04-09T14:37:47;5.97;;;5.38;;
20727;SDS011;10525;50.154;8.198;2023-04-09T14:40:14;8.95;;;6.07;;
20727;SDS011;10525;50.154;8.198;2023-04-09T14:42:41;7.57;;;5.72;;
20727;SDS011;10525;50.154;8.198;2023-04-09T14:45:09;23.50;;;10.07;;
20727;SDS011;10525;50.154;8.198;2023-04-09T14:47:36;6.47;;;5.45;;